Time;durP1;ratioP1;P1;durP2;ratioP2;P2;SDS_P1;SDS_P2;PMS_P1;PMS_P2;Temp;Humidity;BMP_temperature;BMP_pressure;BME280_temperature;BME280_humidity;BME280_pressure;Samples;Min_cycle;Max_cycle;Signal;HPM_P1;HPM_P2
2022/10/11 10:27:04;;;;;;;0.30;0.30;;;;;;;;;;7390525;19;20196;-70
2022/10/11 10:29:29;;;;;;;1.30;0.63;;;;;;;;;;7390269;19;20603;-70
2022/10/11 10:31:56;;;;;;;0.30;0.30;;;;;;;;;;7388843;19;20133;-70
2022/10/11 10:34:32;;;;;;;0.30;0.30;;;;;;;;;;7389725;19;20144;-70
2022/10/11 10:37:26;;;;;;;0.30;0.30;;;;;;;;;;7392089;19;20133;-70
2022/10/11 10:39:57;;;;;;;0.57;0.57;;;;;;;;;;7387411;19;20231;-72
2022/10/11 10:42:22;;;;;;;0.30;0.30;;;;;;;;;;7389374;19;20125;-73
2022/10/11 10:44:56;;;;;;;1.35;1.25;;;;;;;;;;7389857;19;20172;-70
2022/10/11 10:47:33;;;;;;;0.30;0.30;;;;;;;;;;7389491;19;20125;-70
2022/10/11 10:50:06;;;;;;;0.30;0.30;;;;;;;;;;7389585;19;20129;-70
2022/10/11 10:52:45;;;;;;;0.38;0.38;;;;;;;;;;7389129;19;20168;-71
2022/10/11 10:55:20;;;;;;;0.30;0.30;;;;;;;;;;7389151;19;20152;-70
2022/10/11 10:57:56;;;;;;;0.60;0.60;;;;;;;;;;7390899;19;20628;-70
2022/10/11 11:00:22;;;;;;;0.30;0.30;;;;;;;;;;7388570;19;20582;-70
2022/10/11 11:02:59;;;;;;;0.30;0.30;;;;;;;;;;7388779;19;20140;-70
2022/10/11 11:05:37;;;;;;;0.38;0.38;;;;;;;;;;7389608;19;20606;-73
2022/10/11 11:08:27;;;;;;;0.43;0.43;;;;;;;;;;7391080;19;20137;-70
2022/10/11 11:11:21;;;;;;;0.30;0.30;;;;;;;;;;7390402;19;20140;-70
2022/10/11 11:14:33;;;;;;;0.30;0.30;;;;;;;;;;7390365;19;20153;-69
2022/10/11 11:17:26;;;;;;;0.30;0.30;;;;;;;;;;7389403;19;20598;-69
2022/10/11 11:20:13;;;;;;;0.47;0.47;;;;;;;;;;7387406;19;20158;-70
2022/10/11 11:23:09;;;;;;;0.47;0.38;;;;;;;;;;7396541;19;20125;-70
2022/10/11 11:25:51;;;;;;;0.30;0.30;;;;;;;;;;7394779;19;20168;-70
2022/10/11 11:28:54;;;;;;;0.50;0.50;;;;;;;;;;7395167;19;20117;-71
2022/10/11 11:31:25;;;;;;;0.40;0.40;;;;;;;;;;7397076;19;20120;-73
2022/10/11 11:34:15;;;;;;;0.30;0.30;;;;;;;;;;7400107;19;20143;-75
2022/10/11 11:36:45;;;;;;;0.30;0.30;;;;;;;;;;7397542;19;20220;-74
2022/10/11 11:39:16;;;;;;;0.40;0.40;;;;;;;;;;7392613;19;20166;-74
2022/10/11 11:41:47;;;;;;;0.40;0.40;;;;;;;;;;7395073;19;20144;-73
2022/10/11 11:44:12;;;;;;;0.73;0.50;;;;;;;;;;7395333;19;20144;-73
2022/10/11 11:46:48;;;;;;;0.40;0.40;;;;;;;;;;7397995;19;20129;-72
2022/10/11 11:49:22;;;;;;;0.38;0.38;;;;;;;;;;7395738;19;20164;-73
2022/10/11 11:51:48;;;;;;;0.30;0.30;;;;;;;;;;7394333;19;20148;-74
2022/10/11 11:54:21;;;;;;;0.30;0.30;;;;;;;;;;7394237;19;20148;-73
2022/10/11 11:56:57;;;;;;;0.57;0.57;;;;;;;;;;7394822;19;20129;-73
2022/10/11 11:59:42;;;;;;;0.32;0.32;;;;;;;;;;7392844;19;20140;-73
2022/10/11 12:02:23;;;;;;;1.17;0.52;;;;;;;;;;7397446;19;20132;-74
2022/10/11 12:04:50;;;;;;;0.57;0.57;;;;;;;;;;7393508;19;20149;-73
2022/10/11 12:07:18;;;;;;;0.40;0.40;;;;;;;;;;7393868;19;20136;-75
2022/10/11 12:09:49;;;;;;;1.90;0.45;;;;;;;;;;7393271;19;20475;-75
2022/10/11 12:12:26;;;;;;;0.50;0.35;;;;;;;;;;7394542;19;20207;-76
2022/10/11 12:15:21;;;;;;;0.30;0.30;;;;;;;;;;7392068;19;20479;-74
2022/10/11 12:17:56;;;;;;;0.30;0.30;;;;;;;;;;7393310;19;20522;-73
2022/10/11 12:20:36;;;;;;;0.95;0.95;;;;;;;;;;7393501;19;20613;-75
2022/10/11 12:23:17;;;;;;;2.63;0.50;;;;;;;;;;7391809;19;20145;-74
2022/10/11 12:25:43;;;;;;;0.70;0.70;;;;;;;;;;7392671;19;20156;-73
2022/10/11 12:28:36;;;;;;;0.68;0.50;;;;;;;;;;7394895;19;20124;-73
2022/10/11 12:31:17;;;;;;;0.45;0.45;;;;;;;;;;7388286;19;20208;-73
2022/10/11 12:33:45;;;;;;;0.30;0.30;;;;;;;;;;7390285;19;20160;-76
2022/10/11 12:36:37;;;;;;;0.43;0.43;;;;;;;;;;7394753;19;20125;-76
2022/10/11 12:39:17;;;;;;;0.30;0.30;;;;;;;;;;7390225;19;20144;-73
2022/10/11 12:41:48;;;;;;;0.57;0.57;;;;;;;;;;7391048;19;20180;-74
2022/10/11 12:44:20;;;;;;;0.30;0.30;;;;;;;;;;7391966;19;20167;-72
2022/10/11 12:46:54;;;;;;;0.30;0.30;;;;;;;;;;7394602;19;20125;-73
2022/10/11 12:49:43;;;;;;;0.30;0.30;;;;;;;;;;7392502;19;20121;-73
2022/10/11 12:52:15;;;;;;;3.92;2.03;;;;;;;;;;7389687;19;20144;-74
2022/10/11 12:54:55;;;;;;;0.40;0.40;;;;;;;;;;7394947;19;20157;-74
2022/10/11 12:57:42;;;;;;;0.30;0.30;;;;;;;;;;7393704;19;20204;-74
2022/10/11 13:00:29;;;;;;;0.40;0.40;;;;;;;;;;7391214;19;20129;-74
2022/10/11 13:03:24;;;;;;;0.50;0.50;;;;;;;;;;7394005;19;20129;-73
2022/10/11 13:05:49;;;;;;;0.30;0.30;;;;;;;;;;7391722;19;20203;-73
2022/10/11 13:08:24;;;;;;;0.30;0.30;;;;;;;;;;7392001;19;20113;-74
2022/10/11 13:10:50;;;;;;;0.30;0.30;;;;;;;;;;7391681;19;20630;-75
2022/10/11 13:13:49;;;;;;;0.68;0.68;;;;;;;;;;7392296;19;20113;-74
2022/10/11 13:16:21;;;;;;;0.40;0.40;;;;;;;;;;7391173;19;20212;-73
2022/10/11 13:18:49;;;;;;;0.30;0.30;;;;;;;;;;7392669;19;20153;-73
2022/10/11 13:21:22;;;;;;;0.30;0.30;;;;;;;;;;7391162;19;20159;-74
2022/10/11 13:23:48;;;;;;;1.55;1.38;;;;;;;;;;7392535;19;20140;-74
2022/10/11 13:26:13;;;;;;;0.98;0.63;;;;;;;;;;7394174;19;20125;-70
2022/10/11 13:28:38;;;;;;;0.38;0.38;;;;;;;;;;7392594;19;20492;-71
2022/10/11 13:31:04;;;;;;;0.32;0.32;;;;;;;;;;7390340;19;20205;-73
2022/10/11 13:33:31;;;;;;;0.30;0.30;;;;;;;;;;7393029;19;20508;-70
2022/10/11 13:35:57;;;;;;;0.45;0.45;;;;;;;;;;7390275;19;20170;-71
2022/10/11 13:38:27;;;;;;;0.40;0.40;;;;;;;;;;7391402;19;20125;-74
2022/10/11 13:40:54;;;;;;;0.30;0.30;;;;;;;;;;7390702;19;20129;-73
2022/10/11 13:43:23;;;;;;;1.17;1.17;;;;;;;;;;7392153;19;20113;-70
2022/10/11 13:45:48;;;;;;;0.30;0.30;;;;;;;;;;7387379;19;20493;-71
2022/10/11 13:48:14;;;;;;;0.30;0.30;;;;;;;;;;7390656;19;20128;-71
2022/10/11 13:50:44;;;;;;;0.30;0.30;;;;;;;;;;7390418;19;20663;-70
2022/10/11 13:53:10;;;;;;;0.30;0.30;;;;;;;;;;7393601;19;20204;-71
2022/10/11 13:55:48;;;;;;;0.30;0.30;;;;;;;;;;7392122;19;20156;-72
2022/10/11 13:58:25;;;;;;;0.30;0.30;;;;;;;;;;7391141;19;20117;-70
2022/10/11 14:00:56;;;;;;;0.30;0.30;;;;;;;;;;7391504;19;20133;-70
2022/10/11 14:03:23;;;;;;;0.40;0.40;;;;;;;;;;7391917;19;20120;-73
2022/10/11 14:05:56;;;;;;;0.75;0.60;;;;;;;;;;7389936;19;20149;-73
2022/10/11 14:08:37;;;;;;;0.30;0.30;;;;;;;;;;7391190;19;20487;-71
2022/10/11 14:11:04;;;;;;;0.30;0.30;;;;;;;;;;7389945;19;20491;-70
2022/10/11 14:13:29;;;;;;;0.30;0.30;;;;;;;;;;7390058;19;20695;-70
2022/10/11 14:16:04;;;;;;;0.75;0.50;;;;;;;;;;7391409;19;20181;-71
2022/10/11 14:18:35;;;;;;;0.30;0.30;;;;;;;;;;7390464;19;20227;-70
2022/10/11 14:21:44;;;;;;;0.30;0.30;;;;;;;;;;7390551;19;20129;-70
2022/10/11 14:24:09;;;;;;;0.30;0.30;;;;;;;;;;7387229;19;20191;-70
2022/10/11 14:26:40;;;;;;;0.30;0.30;;;;;;;;;;7390150;19;20128;-70
2022/10/11 14:29:10;;;;;;;0.30;0.30;;;;;;;;;;7389597;19;20724;-71
2022/10/11 14:31:35;;;;;;;1.50;1.02;;;;;;;;;;7388704;19;20216;-71
2022/10/11 14:34:00;;;;;;;0.30;0.30;;;;;;;;;;7386352;19;20156;-72
2022/10/11 14:36:26;;;;;;;0.30;0.30;;;;;;;;;;7387221;19;20117;-71
2022/10/11 14:38:52;;;;;;;0.20;0.20;;;;;;;;;;7386260;19;20117;-71
2022/10/11 14:41:17;;;;;;;0.20;0.20;;;;;;;;;;7386361;19;20146;-70
2022/10/11 14:43:43;;;;;;;0.30;0.30;;;;;;;;;;7386326;19;20150;-72
2022/10/11 14:46:23;;;;;;;0.38;0.38;;;;;;;;;;7387780;19;20511;-70
2022/10/11 14:48:49;;;;;;;0.30;0.30;;;;;;;;;;7387907;19;20555;-70
2022/10/11 14:51:18;;;;;;;0.30;0.30;;;;;;;;;;7386271;19;20121;-70
2022/10/11 14:53:45;;;;;;;0.30;0.30;;;;;;;;;;7386598;19;20121;-72
2022/10/11 14:56:12;;;;;;;0.30;0.30;;;;;;;;;;7388343;19;20735;-71
2022/10/11 14:58:37;;;;;;;0.40;0.40;;;;;;;;;;7393937;19;20645;-70
2022/10/11 15:01:02;;;;;;;0.30;0.30;;;;;;;;;;7394454;19;20121;-71
2022/10/11 15:03:27;;;;;;;1.60;1.15;;;;;;;;;;7395264;19;20125;-72
2022/10/11 15:05:53;;;;;;;0.52;0.52;;;;;;;;;;7394390;19;20163;-70
2022/10/11 15:08:18;;;;;;;0.30;0.30;;;;;;;;;;7396946;19;20124;-70
2022/10/11 15:10:43;;;;;;;0.30;0.30;;;;;;;;;;7391746;19;20594;-73
2022/10/11 15:13:09;;;;;;;0.30;0.30;;;;;;;;;;7394168;19;20138;-70
2022/10/11 15:15:36;;;;;;;0.30;0.30;;;;;;;;;;7391971;19;20185;-70
2022/10/11 15:18:04;;;;;;;0.30;0.30;;;;;;;;;;7390780;19;20485;-72
2022/10/11 15:20:34;;;;;;;0.30;0.30;;;;;;;;;;7389453;19;20578;-70
2022/10/11 15:23:00;;;;;;;0.35;0.35;;;;;;;;;;7389251;19;20147;-70
2022/10/11 15:25:26;;;;;;;0.30;0.30;;;;;;;;;;7386858;19;20153;-70
2022/10/11 15:27:52;;;;;;;0.20;0.20;;;;;;;;;;7389371;19;20584;-70
2022/10/11 15:30:19;;;;;;;0.63;0.52;;;;;;;;;;7388136;19;20141;-71
2022/10/11 15:32:44;;;;;;;0.30;0.30;;;;;;;;;;7393434;19;20121;-71
2022/10/11 15:35:10;;;;;;;0.90;0.90;;;;;;;;;;7395781;19;20155;-70
2022/10/11 15:37:36;;;;;;;0.30;0.30;;;;;;;;;;7397077;19;20125;-71
2022/10/11 15:40:04;;;;;;;0.30;0.30;;;;;;;;;;7391436;19;20125;-70
2022/10/11 15:42:30;;;;;;;0.30;0.30;;;;;;;;;;7395622;19;20179;-70
2022/10/11 15:44:55;;;;;;;0.30;0.30;;;;;;;;;;7395967;19;20612;-70
2022/10/11 15:47:20;;;;;;;0.30;0.30;;;;;;;;;;7396161;19;20117;-70
2022/10/11 15:49:46;;;;;;;0.20;0.20;;;;;;;;;;7393907;19;20141;-70
2022/10/11 15:52:11;;;;;;;0.80;0.80;;;;;;;;;;7397065;19;20120;-70
2022/10/11 15:54:37;;;;;;;11.38;1.65;;;;;;;;;;7394431;19;20757;-70
2022/10/11 15:57:02;;;;;;;0.30;0.30;;;;;;;;;;7396134;19;20133;-71
2022/10/11 15:59:27;;;;;;;0.30;0.30;;;;;;;;;;7393896;19;20132;-70
2022/10/11 16:01:52;;;;;;;0.30;0.30;;;;;;;;;;7394143;19;20228;-70
2022/10/11 16:04:18;;;;;;;0.30;0.30;;;;;;;;;;7396304;19;20149;-70
2022/10/11 16:06:43;;;;;;;0.30;0.30;;;;;;;;;;7395506;19;20136;-70
2022/10/11 16:09:08;;;;;;;0.30;0.30;;;;;;;;;;7394446;19;20121;-71
2022/10/11 16:11:34;;;;;;;0.30;0.30;;;;;;;;;;7394450;19;20160;-71
2022/10/11 16:13:59;;;;;;;0.22;0.22;;;;;;;;;;7395701;19;20145;-71
2022/10/11 16:16:24;;;;;;;0.30;0.30;;;;;;;;;;7394512;19;20129;-71
2022/10/11 16:18:49;;;;;;;0.30;0.30;;;;;;;;;;7393573;19;20194;-72
2022/10/11 16:21:15;;;;;;;0.30;0.30;;;;;;;;;;7394580;19;20144;-74
2022/10/11 16:23:40;;;;;;;0.30;0.30;;;;;;;;;;7396674;19;20128;-74
2022/10/11 16:26:08;;;;;;;2.35;1.50;;;;;;;;;;7391333;19;20141;-72
2022/10/11 16:28:34;;;;;;;0.30;0.30;;;;;;;;;;7394388;19;20148;-72
2022/10/11 16:31:05;;;;;;;0.47;0.47;;;;;;;;;;7393492;19;20125;-73
2022/10/11 16:33:30;;;;;;;0.40;0.40;;;;;;;;;;7394705;19;20606;-72
2022/10/11 16:36:30;;;;;;;0.40;0.40;;;;;;;;;;7393359;19;20145;-72
2022/10/11 16:38:41;;;;;;;0.30;0.30;;;;;;;;;;7392927;19;20163;-72
2022/10/11 16:41:06;;;;;;;0.30;0.30;;;;;;;;;;7392068;19;20117;-72
2022/10/11 16:43:31;;;;;;;0.30;0.30;;;;;;;;;;7394537;19;20129;-72
2022/10/11 16:45:57;;;;;;;0.30;0.30;;;;;;;;;;7393123;19;20581;-72
2022/10/11 16:48:22;;;;;;;0.30;0.30;;;;;;;;;;7394339;19;20172;-72
2022/10/11 16:50:47;;;;;;;0.20;0.20;;;;;;;;;;7392167;19;20499;-71
2022/10/11 16:53:14;;;;;;;0.35;0.35;;;;;;;;;;7394910;19;20125;-72
2022/10/11 16:55:39;;;;;;;0.30;0.30;;;;;;;;;;7393165;19;20148;-72
2022/10/11 16:58:05;;;;;;;0.30;0.30;;;;;;;;;;7394961;19;20525;-71
2022/10/11 17:00:30;;;;;;;0.30;0.30;;;;;;;;;;7392780;19;20168;-71
2022/10/11 17:02:55;;;;;;;0.38;0.38;;;;;;;;;;7394121;19;20180;-70
2022/10/11 17:05:20;;;;;;;0.30;0.30;;;;;;;;;;7392542;19;20162;-72
2022/10/11 17:07:46;;;;;;;0.30;0.30;;;;;;;;;;7394427;19;20132;-71
2022/10/11 17:10:12;;;;;;;0.20;0.20;;;;;;;;;;7391721;19;20221;-71
2022/10/11 17:12:37;;;;;;;0.30;0.30;;;;;;;;;;7392792;19;20125;-72
2022/10/11 17:15:04;;;;;;;0.38;0.38;;;;;;;;;;7389117;19;20157;-75
2022/10/11 17:17:29;;;;;;;0.30;0.30;;;;;;;;;;7389792;19;20141;-72
2022/10/11 17:19:56;;;;;;;0.30;0.30;;;;;;;;;;7388797;19;20123;-72
2022/10/11 17:22:22;;;;;;;0.30;0.30;;;;;;;;;;7389254;19;20149;-72
2022/10/11 17:24:47;;;;;;;0.30;0.30;;;;;;;;;;7389773;19;20180;-72
2022/10/11 17:27:12;;;;;;;0.43;0.43;;;;;;;;;;7392736;19;20555;-71
2022/10/11 17:29:38;;;;;;;0.82;0.82;;;;;;;;;;7385071;19;20220;-72
2022/10/11 17:32:04;;;;;;;0.30;0.30;;;;;;;;;;7388794;19;20147;-73
2022/10/11 17:34:29;;;;;;;0.30;0.30;;;;;;;;;;7390210;19;20186;-71
2022/10/11 17:36:54;;;;;;;1.02;0.98;;;;;;;;;;7390561;19;20132;-72
2022/10/11 17:39:21;;;;;;;0.30;0.30;;;;;;;;;;7388429;19;20574;-75
2022/10/11 17:41:47;;;;;;;0.30;0.30;;;;;;;;;;7387183;19;20137;-71
2022/10/11 17:44:13;;;;;;;0.30;0.30;;;;;;;;;;7391352;19;20168;-72
2022/10/11 17:46:38;;;;;;;0.30;0.30;;;;;;;;;;7389836;19;20129;-73
2022/10/11 17:49:06;;;;;;;0.30;0.30;;;;;;;;;;7391781;19;20125;-71
2022/10/11 17:51:33;;;;;;;0.30;0.30;;;;;;;;;;7390318;19;20136;-71
2022/10/11 17:53:58;;;;;;;0.20;0.20;;;;;;;;;;7393250;19;20495;-71
2022/10/11 17:56:25;;;;;;;0.20;0.20;;;;;;;;;;7391351;19;20458;-72
2022/10/11 17:58:53;;;;;;;1.05;1.05;;;;;;;;;;7391338;19;20679;-72
2022/10/11 18:01:21;;;;;;;0.30;0.30;;;;;;;;;;7390266;19;20137;-71
2022/10/11 18:03:55;;;;;;;0.20;0.20;;;;;;;;;;7391874;19;20507;-71
2022/10/11 18:06:20;;;;;;;0.30;0.30;;;;;;;;;;7392599;19;20152;-73
2022/10/11 18:08:46;;;;;;;0.82;0.82;;;;;;;;;;7391927;19;20487;-71
2022/10/11 18:11:13;;;;;;;0.40;0.40;;;;;;;;;;7389896;19;20162;-72
2022/10/11 18:13:41;;;;;;;0.40;0.40;;;;;;;;;;7390173;19;20117;-72
2022/10/11 18:16:07;;;;;;;0.45;0.45;;;;;;;;;;7389437;19;20661;-71
2022/10/11 18:18:32;;;;;;;0.30;0.30;;;;;;;;;;7390861;19;20134;-71
2022/10/11 18:20:59;;;;;;;0.30;0.30;;;;;;;;;;7393852;19;20133;-74
2022/10/11 18:23:24;;;;;;;0.50;0.50;;;;;;;;;;7392194;19;20140;-71
2022/10/11 18:25:49;;;;;;;1.20;0.40;;;;;;;;;;7391604;19;20172;-72
2022/10/11 18:28:16;;;;;;;0.20;0.20;;;;;;;;;;7393282;19;20121;-71
2022/10/11 18:30:46;;;;;;;0.40;0.40;;;;;;;;;;7391155;19;20140;-72
2022/10/11 18:33:12;;;;;;;0.30;0.30;;;;;;;;;;7390437;19;20152;-71
2022/10/11 18:35:37;;;;;;;0.30;0.30;;;;;;;;;;7389213;19;20148;-71
2022/10/11 18:38:03;;;;;;;0.28;0.28;;;;;;;;;;7389198;19;20141;-71
2022/10/11 18:40:29;;;;;;;0.20;0.20;;;;;;;;;;7389130;19;20144;-71
2022/10/11 18:42:54;;;;;;;0.30;0.30;;;;;;;;;;7390862;19;20501;-74
2022/10/11 18:45:19;;;;;;;0.30;0.30;;;;;;;;;;7389216;19;20145;-71
2022/10/11 18:47:45;;;;;;;0.20;0.20;;;;;;;;;;7390726;19;20154;-72
2022/10/11 18:50:10;;;;;;;0.20;0.20;;;;;;;;;;7388706;19;20113;-71
2022/10/11 18:52:35;;;;;;;2.17;0.93;;;;;;;;;;7390468;19;20590;-72
2022/10/11 18:55:03;;;;;;;0.30;0.30;;;;;;;;;;7390394;19;20151;-73
2022/10/11 18:57:29;;;;;;;0.20;0.20;;;;;;;;;;7389376;19;20183;-71
2022/10/11 18:59:54;;;;;;;0.30;0.30;;;;;;;;;;7387059;19;20141;-71
2022/10/11 19:02:19;;;;;;;0.30;0.30;;;;;;;;;;7389550;19;20125;-71
2022/10/11 19:04:51;;;;;;;0.40;0.40;;;;;;;;;;7390015;19;20672;-73
2022/10/11 19:07:16;;;;;;;0.20;0.20;;;;;;;;;;7388711;19;20164;-71
2022/10/11 19:09:42;;;;;;;0.35;0.35;;;;;;;;;;7388702;19;20117;-71
2022/10/11 19:12:07;;;;;;;0.25;0.25;;;;;;;;;;7388415;19;20148;-73
2022/10/11 19:14:32;;;;;;;0.25;0.25;;;;;;;;;;7388006;19;20197;-71
2022/10/11 19:16:58;;;;;;;0.30;0.30;;;;;;;;;;7388707;19;20212;-71
2022/10/11 19:19:26;;;;;;;0.20;0.20;;;;;;;;;;7387429;19;20137;-72
2022/10/11 19:21:52;;;;;;;1.13;0.60;;;;;;;;;;7387910;19;20472;-72
2022/10/11 19:24:19;;;;;;;0.20;0.20;;;;;;;;;;7388659;19;20498;-71
2022/10/11 19:26:45;;;;;;;0.20;0.20;;;;;;;;;;7387788;19;20602;-70
2022/10/11 19:29:13;;;;;;;0.43;0.43;;;;;;;;;;7388157;19;20125;-71
2022/10/11 19:31:41;;;;;;;0.20;0.20;;;;;;;;;;7386829;19;20121;-71
2022/10/11 19:34:06;;;;;;;0.30;0.30;;;;;;;;;;7387567;19;20145;-72
2022/10/11 19:36:32;;;;;;;0.30;0.30;;;;;;;;;;7389155;19;20133;-70
2022/10/11 19:38:58;;;;;;;0.47;0.47;;;;;;;;;;7388229;19;20117;-71
2022/10/11 19:41:25;;;;;;;0.20;0.20;;;;;;;;;;7388799;19;20567;-71
2022/10/11 19:43:50;;;;;;;0.20;0.20;;;;;;;;;;7390023;19;20586;-71
2022/10/11 19:46:19;;;;;;;0.20;0.20;;;;;;;;;;7392000;19;20152;-72
2022/10/11 19:48:45;;;;;;;0.30;0.30;;;;;;;;;;7393864;19;20541;-72
2022/10/11 19:51:25;;;;;;;0.30;0.30;;;;;;;;;;7392081;19;20153;-73
2022/10/11 19:53:58;;;;;;;0.30;0.30;;;;;;;;;;7393397;19;20152;-72
2022/10/11 19:56:25;;;;;;;0.20;0.20;;;;;;;;;;7393741;19;20156;-72
2022/10/11 19:58:50;;;;;;;0.30;0.30;;;;;;;;;;7393063;19;20161;-71
2022/10/11 20:01:18;;;;;;;0.30;0.30;;;;;;;;;;7393874;19;20631;-72
2022/10/11 20:03:46;;;;;;;0.30;0.30;;;;;;;;;;7394177;19;20502;-71
2022/10/11 20:06:12;;;;;;;0.30;0.30;;;;;;;;;;7395170;19;20137;-71
2022/10/11 20:08:37;;;;;;;0.25;0.25;;;;;;;;;;7393313;19;20121;-73
2022/10/11 20:11:06;;;;;;;0.30;0.30;;;;;;;;;;7391540;19;20125;-71
2022/10/11 20:13:31;;;;;;;0.30;0.30;;;;;;;;;;7393181;19;20536;-71
2022/10/11 20:15:59;;;;;;;0.30;0.30;;;;;;;;;;7391476;19;20187;-71
2022/10/11 20:18:24;;;;;;;0.30;0.30;;;;;;;;;;7396346;19;20121;-73
2022/10/11 20:20:55;;;;;;;0.30;0.30;;;;;;;;;;7386068;19;20182;-73
2022/10/11 20:23:21;;;;;;;0.20;0.20;;;;;;;;;;7392867;19;20547;-71
2022/10/11 20:25:58;;;;;;;0.40;0.40;;;;;;;;;;7390571;19;20148;-72
2022/10/11 20:28:25;;;;;;;0.30;0.30;;;;;;;;;;7394217;19;20509;-71
2022/10/11 20:30:50;;;;;;;0.30;0.30;;;;;;;;;;7393108;19;20129;-72
2022/10/11 20:33:15;;;;;;;0.85;0.85;;;;;;;;;;7396516;19;20139;-72
2022/10/11 20:35:41;;;;;;;0.30;0.30;;;;;;;;;;7392593;19;20184;-72
2022/10/11 20:38:06;;;;;;;0.28;0.28;;;;;;;;;;7395402;19;20467;-72
2022/10/11 20:40:31;;;;;;;0.30;0.30;;;;;;;;;;7391478;19;20124;-72
2022/10/11 20:42:57;;;;;;;0.30;0.30;;;;;;;;;;7393377;19;20128;-72
2022/10/11 20:45:22;;;;;;;0.30;0.30;;;;;;;;;;7391832;19;20176;-71
2022/10/11 20:47:47;;;;;;;0.20;0.20;;;;;;;;;;7395545;19;20483;-71
2022/10/11 20:50:13;;;;;;;0.30;0.30;;;;;;;;;;7392665;19;20125;-73
2022/10/11 20:52:38;;;;;;;0.30;0.30;;;;;;;;;;7393247;19;20125;-71
2022/10/11 20:55:05;;;;;;;0.40;0.40;;;;;;;;;;7389812;19;20583;-72
2022/10/11 20:57:30;;;;;;;0.43;0.43;;;;;;;;;;7394010;19;20486;-72
2022/10/11 20:59:56;;;;;;;0.30;0.30;;;;;;;;;;7389250;19;20121;-72
2022/10/11 21:02:21;;;;;;;0.30;0.30;;;;;;;;;;7395359;19;20121;-71
2022/10/11 21:04:46;;;;;;;0.30;0.30;;;;;;;;;;7391890;19;20503;-71
2022/10/11 21:07:11;;;;;;;0.30;0.30;;;;;;;;;;7394667;19;20117;-72
2022/10/11 21:09:37;;;;;;;0.30;0.30;;;;;;;;;;7392159;19;20125;-71
2022/10/11 21:12:02;;;;;;;0.30;0.30;;;;;;;;;;7394408;19;20192;-71
2022/10/11 21:14:27;;;;;;;0.40;0.40;;;;;;;;;;7390837;19;20144;-73
2022/10/11 21:16:53;;;;;;;0.30;0.30;;;;;;;;;;7390965;19;20477;-71
2022/10/11 21:19:18;;;;;;;0.30;0.30;;;;;;;;;;7391749;19;20149;-71
2022/10/11 21:21:46;;;;;;;0.30;0.30;;;;;;;;;;7392911;19;20141;-71
2022/10/11 21:24:11;;;;;;;0.30;0.30;;;;;;;;;;7392818;19;20153;-73
2022/10/11 21:26:36;;;;;;;0.30;0.30;;;;;;;;;;7391542;19;20159;-72
2022/10/11 21:29:02;;;;;;;0.30;0.30;;;;;;;;;;7392775;19;20586;-71
2022/10/11 21:31:28;;;;;;;0.30;0.30;;;;;;;;;;7390647;19;20431;-71
2022/10/11 21:33:53;;;;;;;0.30;0.30;;;;;;;;;;7392347;19;20479;-71
2022/10/11 21:36:20;;;;;;;0.30;0.30;;;;;;;;;;7393461;19;20153;-71
2022/10/11 21:38:47;;;;;;;0.20;0.20;;;;;;;;;;7391483;19;20141;-71
2022/10/11 21:41:14;;;;;;;0.40;0.40;;;;;;;;;;7390394;19;20144;-71
2022/10/11 21:43:40;;;;;;;0.30;0.30;;;;;;;;;;7391854;19;20128;-72
2022/10/11 21:46:18;;;;;;;0.30;0.30;;;;;;;;;;7390881;19;20155;-71
2022/10/11 21:48:44;;;;;;;0.20;0.20;;;;;;;;;;7392068;19;20131;-71
2022/10/11 21:51:15;;;;;;;0.30;0.30;;;;;;;;;;7389727;19;20196;-71
2022/10/11 21:53:40;;;;;;;0.30;0.30;;;;;;;;;;7391364;19;20133;-71
2022/10/11 21:56:06;;;;;;;0.20;0.20;;;;;;;;;;7391244;19;20212;-71
2022/10/11 21:58:31;;;;;;;0.20;0.20;;;;;;;;;;7390528;19;20127;-71
2022/10/11 22:00:57;;;;;;;0.30;0.30;;;;;;;;;;7389685;19;20144;-72
2022/10/11 22:03:22;;;;;;;0.30;0.30;;;;;;;;;;7392084;19;20121;-71
2022/10/11 22:05:47;;;;;;;0.30;0.30;;;;;;;;;;7388913;19;20610;-73
2022/10/11 22:08:14;;;;;;;0.30;0.30;;;;;;;;;;7390801;19;20128;-71
2022/10/11 22:10:44;;;;;;;0.30;0.30;;;;;;;;;;7390414;19;20181;-74
2022/10/11 22:13:10;;;;;;;0.30;0.30;;;;;;;;;;7390472;19;20534;-71
2022/10/11 22:15:35;;;;;;;0.68;0.68;;;;;;;;;;7389844;19;20153;-71
2022/10/11 22:18:01;;;;;;;0.35;0.35;;;;;;;;;;7389518;19;20136;-71
2022/10/11 22:20:26;;;;;;;0.20;0.20;;;;;;;;;;7387794;19;20121;-71
2022/10/11 22:22:52;;;;;;;0.30;0.30;;;;;;;;;;7387101;19;20121;-71
2022/10/11 22:25:17;;;;;;;0.30;0.30;;;;;;;;;;7390331;19;20241;-72
